Time;durP1;ratioP1;P1;durP2;ratioP2;P2;SDS_P1;SDS_P2;PMS_P1;PMS_P2;Temp;Humidity;BMP_temperature;BMP_pressure;BME280_temperature;BME280_humidity;BME280_pressure;Samples;Min_cycle;Max_cycle;Signal;HPM_P1;HPM_P2
2022/12/16 00:01:05;;;;;;;0.40;0.40;;;;;;;-7.73;100.00;99416.38;5022569;28;20446;-52
2022/12/16 00:03:31;;;;;;;1.70;1.63;;;;;;;-7.72;100.00;99410.38;5019269;28;20448;-52
2022/12/16 00:05:59;;;;;;;1.83;1.83;;;;;;;-7.70;100.00;99424.19;5022326;28;20455;-52
2022/12/16 00:08:25;;;;;;;7.40;2.17;;;;;;;-7.78;100.00;99425.69;5025681;28;20477;-52
2022/12/16 00:10:56;;;;;;;0.47;0.47;;;;;;;-7.91;100.00;99420.97;5022994;28;20513;-52
2022/12/16 00:13:22;;;;;;;0.23;0.23;;;;;;;-8.09;100.00;99424.72;5019199;28;20448;-52
2022/12/16 00:15:49;;;;;;;2.10;2.03;;;;;;;-8.03;100.00;99423.19;5021338;28;20460;-52
2022/12/16 00:18:18;;;;;;;4.77;1.53;;;;;;;-8.13;100.00;99420.31;5026160;28;20472;-53
2022/12/16 00:20:50;;;;;;;0.80;0.80;;;;;;;-7.98;100.00;99419.91;5024409;28;20448;-52
2022/12/16 00:23:17;;;;;;;2.13;1.90;;;;;;;-8.04;100.00;99424.00;5023474;28;20523;-52
2022/12/16 00:25:44;;;;;;;0.30;0.30;;;;;;;-8.20;100.00;99426.09;5019447;28;20879;-51
2022/12/16 00:28:13;;;;;;;1.80;1.80;;;;;;;-8.12;100.00;99416.03;5028205;28;20524;-52
2022/12/16 00:30:41;;;;;;;1.27;1.27;;;;;;;-8.11;100.00;99425.50;5029061;28;20484;-52
2022/12/16 00:33:08;;;;;;;1.80;1.70;;;;;;;-8.10;100.00;99424.66;5023093;28;20452;-52
2022/12/16 00:35:34;;;;;;;2.80;2.70;;;;;;;-8.22;100.00;99419.13;5022230;28;20444;-52
2022/12/16 00:38:00;;;;;;;0.70;0.70;;;;;;;-8.20;100.00;99420.94;5028516;28;20506;-52
2022/12/16 00:40:27;;;;;;;0.70;0.70;;;;;;;-8.22;100.00;99420.03;5029118;28;20513;-52
2022/12/16 00:42:54;;;;;;;3.50;1.17;;;;;;;-8.25;100.00;99426.78;5023292;28;20447;-52
2022/12/16 00:45:20;;;;;;;1.40;1.30;;;;;;;-8.28;100.00;99432.72;5033081;28;20451;-53
2022/12/16 00:47:49;;;;;;;1.23;1.23;;;;;;;-8.44;100.00;99423.66;5047415;28;20447;-52
2022/12/16 00:50:17;;;;;;;0.60;0.60;;;;;;;-8.30;100.00;99436.94;5022297;28;20499;-52
2022/12/16 00:52:43;;;;;;;7.23;3.70;;;;;;;-8.39;100.00;99419.50;5027507;28;20440;-52
2022/12/16 00:55:10;;;;;;;2.03;1.43;;;;;;;-8.29;100.00;99418.06;5033802;28;20953;-52
2022/12/16 00:57:37;;;;;;;1.83;1.83;;;;;;;-8.30;100.00;99430.91;5023173;28;20945;-52
2022/12/16 01:00:05;;;;;;;0.20;0.20;;;;;;;-8.37;99.91;99425.56;5021635;28;20986;-52
2022/12/16 01:02:31;;;;;;;1.70;1.70;;;;;;;-8.27;100.00;99431.00;5026782;28;20453;-52
2022/12/16 01:04:58;;;;;;;0.60;0.60;;;;;;;-8.08;100.00;99428.19;5029066;28;20525;-52
2022/12/16 01:07:24;;;;;;;0.80;0.80;;;;;;;-8.31;100.00;99431.75;5023529;28;20452;-51
2022/12/16 01:09:51;;;;;;;1.93;1.80;;;;;;;-8.02;100.00;99443.84;5021588;28;20468;-52
2022/12/16 01:12:20;;;;;;;3.83;1.53;;;;;;;-7.86;100.00;99437.44;5026677;28;20881;-52
2022/12/16 01:14:46;;;;;;;0.33;0.33;;;;;;;-8.06;100.00;99453.19;5028871;28;20826;-52
2022/12/16 01:17:13;;;;;;;0.77;0.77;;;;;;;-7.88;100.00;99457.16;5023978;28;20456;-52
2022/12/16 01:19:39;;;;;;;0.20;0.20;;;;;;;-8.10;99.48;99460.75;5021727;28;20472;-52
2022/12/16 01:22:05;;;;;;;1.40;0.87;;;;;;;-7.80;100.00;99464.31;5026751;28;20455;-53
2022/12/16 01:24:32;;;;;;;7.10;1.73;;;;;;;-7.52;100.00;99472.88;5032744;28;20452;-52
2022/12/16 01:26:58;;;;;;;1.40;1.27;;;;;;;-7.64;100.00;99465.66;5024671;28;20824;-52
2022/12/16 01:29:25;;;;;;;0.50;0.50;;;;;;;-7.58;100.00;99468.41;5021765;28;20475;-53
2022/12/16 01:31:51;;;;;;;1.03;1.03;;;;;;;-7.87;100.00;99470.09;5025935;28;20484;-53
2022/12/16 01:34:17;;;;;;;1.47;1.47;;;;;;;-8.00;100.00;99477.41;5028781;28;20452;-52
2022/12/16 01:36:44;;;;;;;5.97;2.70;;;;;;;-8.03;100.00;99464.41;5024185;28;20452;-53
2022/12/16 01:39:11;;;;;;;0.67;0.67;;;;;;;-7.97;100.00;99477.50;5021677;28;20484;-52
2022/12/16 01:41:37;;;;;;;1.60;1.50;;;;;;;-8.05;100.00;99490.16;5026059;28;20448;-52
2022/12/16 01:44:14;;;;;;;0.67;0.67;;;;;;;-8.22;100.00;99479.31;5028260;28;20824;-52
2022/12/16 01:46:44;;;;;;;1.90;1.80;;;;;;;-8.18;100.00;99485.44;5034560;28;20501;-53
2022/12/16 01:49:23;;;;;;;11.00;3.07;;;;;;;-8.09;100.00;99477.97;5028910;28;20514;-52
2022/12/16 01:51:49;;;;;;;10.70;0.70;;;;;;;-8.34;100.00;99485.78;5021461;28;20860;-51
2022/12/16 01:54:26;;;;;;;0.80;0.60;;;;;;;-8.25;100.00;99481.75;5034158;28;20440;-51
2022/12/16 01:57:07;;;;;;;1.07;1.07;;;;;;;-8.35;100.00;99477.19;5021108;28;20499;-52
2022/12/16 01:59:38;;;;;;;0.10;0.10;;;;;;;-8.24;100.00;99486.09;5023146;28;20519;-51
2022/12/16 02:02:05;;;;;;;0.70;0.70;;;;;;;-8.34;99.98;99486.66;5027729;28;20444;-51
2022/12/16 02:04:31;;;;;;;2.00;2.00;;;;;;;-8.25;99.66;99494.63;5026910;28;20485;-51
2022/12/16 02:07:00;;;;;;;1.83;1.40;;;;;;;-8.63;98.71;99495.06;5020474;28;20451;-51
2022/12/16 02:09:26;;;;;;;4.40;4.00;;;;;;;-8.66;99.39;99496.72;5021336;28;20476;-51
2022/12/16 02:12:03;;;;;;;2.00;1.60;;;;;;;-8.58;99.58;99499.59;5027468;28;20489;-52
2022/12/16 02:14:50;;;;;;;0.20;0.20;;;;;;;-8.75;98.99;99499.00;5027266;28;20803;-52
2022/12/16 02:17:44;;;;;;;0.80;0.80;;;;;;;-8.74;99.86;99497.31;5024329;28;20859;-51
2022/12/16 02:20:36;;;;;;;1.80;0.93;;;;;;;-8.81;99.66;99496.19;5026734;28;20821;-51
2022/12/16 02:23:08;;;;;;;0.40;0.40;;;;;;;-8.83;99.58;99496.97;5031449;28;20451;-52
2022/12/16 02:26:04;;;;;;;3.03;2.83;;;;;;;-8.81;98.88;99493.63;5021964;28;20452;-52
2022/12/16 02:29:02;;;;;;;2.00;1.90;;;;;;;-8.98;99.01;99495.59;5023026;28;20464;-51
2022/12/16 02:31:42;;;;;;;1.13;1.13;;;;;;;-8.98;99.69;99498.19;5026855;28;20563;-52
2022/12/16 02:34:40;;;;;;;0.10;0.10;;;;;;;-8.76;99.07;99491.22;5026937;28;20443;-52
2022/12/16 02:37:17;;;;;;;0.40;0.40;;;;;;;-8.79;99.56;99493.69;5026591;28;20957;-52
2022/12/16 02:39:57;;;;;;;2.67;1.00;;;;;;;-8.77;99.22;99494.59;5032568;28;20490;-53
2022/12/16 02:42:39;;;;;;;3.30;1.03;;;;;;;-8.63;99.53;99489.94;5029684;28;20445;-53
2022/12/16 02:45:11;;;;;;;0.10;0.10;;;;;;;-8.68;99.77;99488.06;5024825;28;20825;-52
2022/12/16 02:47:38;;;;;;;3.90;0.87;;;;;;;-9.03;100.00;99483.41;5032271;28;20444;-53
2022/12/16 02:50:16;;;;;;;1.53;1.53;;;;;;;-8.81;99.56;99488.47;5018551;28;20522;-53
2022/12/16 02:52:42;;;;;;;1.70;1.50;;;;;;;-8.88;99.08;99489.09;5025890;28;20448;-53
2022/12/16 02:55:10;;;;;;;1.70;1.23;;;;;;;-8.98;99.39;99487.00;5031154;28;20824;-53
2022/12/16 02:58:13;;;;;;;0.50;0.50;;;;;;;-9.01;99.01;99486.91;5021157;28;20448;-53
2022/12/16 03:00:51;;;;;;;0.87;0.77;;;;;;;-9.10;98.98;99496.88;4975201;28;20507;-53
2022/12/16 03:03:28;;;;;;;7.73;1.33;;;;;;;-9.15;99.12;99496.72;5025678;28;20451;-52
2022/12/16 03:05:56;;;;;;;0.30;0.30;;;;;;;-9.24;98.09;99495.47;5022659;28;20535;-53
2022/12/16 03:08:32;;;;;;;0.30;0.30;;;;;;;-9.28;98.88;99499.66;5018952;28;20499;-53
2022/12/16 03:11:01;;;;;;;2.47;1.90;;;;;;;-9.28;98.61;99497.94;5020985;28;20494;-53
2022/12/16 03:13:34;;;;;;;0.60;0.57;;;;;;;-9.18;99.22;99496.59;5025437;28;20449;-53
2022/12/16 03:16:04;;;;;;;0.77;0.77;;;;;;;-9.16;99.13;99497.53;5025346;28;20444;-52
2022/12/16 03:18:32;;;;;;;1.43;1.43;;;;;;;-9.09;98.83;99502.06;5025545;28;20887;-53
2022/12/16 03:21:02;;;;;;;4.40;4.07;;;;;;;-9.29;98.81;99508.19;5025430;28;20452;-53
2022/12/16 03:23:56;;;;;;;0.20;0.20;;;;;;;-9.37;98.11;99504.44;5024384;28;20448;-53
2022/12/16 03:26:39;;;;;;;1.43;1.43;;;;;;;-9.41;97.08;99512.88;4996476;28;20452;-53
2022/12/16 03:29:15;;;;;;;0.20;0.20;;;;;;;-9.36;98.22;99512.22;5025558;28;20463;-53
2022/12/16 03:31:55;;;;;;;9.50;1.80;;;;;;;-9.45;99.03;99514.47;5020342;28;20852;-52
2022/12/16 03:34:34;;;;;;;5.77;2.20;;;;;;;-9.31;98.89;99517.56;5018678;28;20502;-53
2022/12/16 03:37:07;;;;;;;0.30;0.30;;;;;;;-9.47;98.05;99515.19;5020347;28;20454;-53
2022/12/16 03:39:49;;;;;;;0.23;0.23;;;;;;;-9.57;98.39;99511.41;4988272;28;1077243;-52
2022/12/16 03:42:16;;;;;;;1.37;1.23;;;;;;;-9.51;98.47;99524.50;5026081;28;20509;-53
2022/12/16 03:44:47;;;;;;;0.97;0.97;;;;;;;-9.65;98.36;99525.66;5020989;28;20448;-52
2022/12/16 03:47:14;;;;;;;0.70;0.70;;;;;;;-9.44;99.75;99525.63;5045637;28;20447;-53
2022/12/16 03:49:48;;;;;;;13.03;2.10;;;;;;;-9.49;98.51;99529.69;5022056;28;20475;-53
2022/12/16 03:52:15;;;;;;;0.67;0.67;;;;;;;-9.30;99.56;99537.31;5022299;28;20997;-53
2022/12/16 03:54:41;;;;;;;8.80;2.30;;;;;;;-9.30;99.13;99542.44;5032507;28;20463;-52
2022/12/16 03:57:07;;;;;;;0.50;0.50;;;;;;;-9.36;98.68;99530.22;5019328;28;20589;-53
2022/12/16 03:59:41;;;;;;;0.67;0.67;;;;;;;-9.45;98.23;99534.16;5020342;28;20523;-53
2022/12/16 04:02:07;;;;;;;1.47;1.37;;;;;;;-9.35;98.43;99536.25;5026690;28;20476;-53
2022/12/16 04:04:34;;;;;;;0.87;0.83;;;;;;;-9.38;98.42;99542.16;5029042;28;20452;-52
2022/12/16 04:09:47;;;;;;;0.60;0.60;;;;;;;-9.49;98.29;99550.25;5022976;28;20476;-51
2022/12/16 04:26:08;;;;;;;2.50;2.30;;;;;;;-9.68;97.79;99556.41;5022672;28;20448;-52
2022/12/16 04:28:34;;;;;;;0.63;0.63;;;;;;;-9.89;98.22;99558.97;5025677;28;20503;-53
2022/12/16 04:31:01;;;;;;;1.03;1.03;;;;;;;-9.75;99.01;99568.13;5029821;28;20488;-52
